sensor_id;sensor_type;location;lat;lon;timestamp;pressure;altitude;pressure_sealevel;temperature;humidity
10127;BME280;13080;42.608;23.362;2023-03-25T00:00:20;152775.84;;;6.62;80.71
10127;BME280;13080;42.608;23.362;2023-03-25T00:02:50;152761.56;;;6.56;80.09
10127;BME280;13080;42.608;23.362;2023-03-25T00:05:19;152760.28;;;6.56;80.34
10127;BME280;13080;42.608;23.362;2023-03-25T00:07:48;152759.00;;;6.55;80.31
10127;BME280;13080;42.608;23.362;2023-03-25T00:10:16;152752.53;;;6.53;81.17
10127;BME280;13080;42.608;23.362;2023-03-25T00:12:44;152742.16;;;6.49;81.41
10127;BME280;13080;42.608;23.362;2023-03-25T00:15:12;152743.44;;;6.49;80.82
10127;BME280;13080;42.608;23.362;2023-03-25T00:17:40;152735.72;;;6.46;81.44
10127;BME280;13080;42.608;23.362;2023-03-25T00:20:10;152770.66;;;6.60;81.92
10127;BME280;13080;42.608;23.362;2023-03-25T00:22:38;152753.81;;;6.53;81.22
10127;BME280;13080;42.608;23.362;2023-03-25T00:25:09;152735.72;;;6.46;81.70
10127;BME280;13080;42.608;23.362;2023-03-25T00:27:37;152725.34;;;6.42;81.53
10127;BME280;13080;42.608;23.362;2023-03-25T00:30:07;152725.34;;;6.42;81.68
10127;BME280;13080;42.608;23.362;2023-03-25T00:32:34;152717.53;;;6.39;81.16
10127;BME280;13080;42.608;23.362;2023-03-25T00:35:01;152714.97;;;6.38;81.52
10127;BME280;13080;42.608;23.362;2023-03-25T00:37:27;152709.78;;;6.36;80.75
10127;BME280;13080;42.608;23.362;2023-03-25T00:39:54;152711.06;;;6.36;80.76
10127;BME280;13080;42.608;23.362;2023-03-25T00:42:21;152712.41;;;6.37;82.31
10127;BME280;13080;42.608;23.362;2023-03-25T00:44:53;152711.06;;;6.36;82.17
10127;BME280;13080;42.608;23.362;2023-03-25T00:47:21;152698.13;;;6.31;82.21
10127;BME280;13080;42.608;23.362;2023-03-25T00:49:49;152703.31;;;6.33;82.69
10127;BME280;13080;42.608;23.362;2023-03-25T00:52:16;152695.56;;;6.30;83.21
10127;BME280;13080;42.608;23.362;2023-03-25T00:54:43;152694.25;;;6.30;83.02
10127;BME280;13080;42.608;23.362;2023-03-25T00:57:10;152687.78;;;6.27;83.37
10127;BME280;13080;42.608;23.362;2023-03-25T00:59:37;152687.78;;;6.27;83.94
10127;BME280;13080;42.608;23.362;2023-03-25T01:02:03;152689.06;;;6.28;83.45
10127;BME280;13080;42.608;23.362;2023-03-25T01:04:33;152685.22;;;6.26;83.66
10127;BME280;13080;42.608;23.362;2023-03-25T01:06:59;152695.56;;;6.30;83.87
10127;BME280;13080;42.608;23.362;2023-03-25T01:09:27;152696.84;;;6.31;84.17
10127;BME280;13080;42.608;23.362;2023-03-25T01:11:54;152685.22;;;6.26;84.26
10127;BME280;13080;42.608;23.362;2023-03-25T01:14:21;152689.06;;;6.28;84.24
10127;BME280;13080;42.608;23.362;2023-03-25T01:16:52;152680.03;;;6.24;84.21
10127;BME280;13080;42.608;23.362;2023-03-25T01:19:19;152676.13;;;6.22;84.35
10127;BME280;13080;42.608;23.362;2023-03-25T01:21:47;152665.75;;;6.18;84.58
10127;BME280;13080;42.608;23.362;2023-03-25T01:24:14;152664.47;;;6.18;85.10
10127;BME280;13080;42.608;23.362;2023-03-25T01:26:42;152656.72;;;6.15;85.14
10127;BME280;13080;42.608;23.362;2023-03-25T01:29:11;152646.38;;;6.11;85.85
10127;BME280;13080;42.608;23.362;2023-03-25T01:31:38;152639.91;;;6.08;86.35
10127;BME280;13080;42.608;23.362;2023-03-25T01:34:05;152655.41;;;6.14;86.58
10127;BME280;13080;42.608;23.362;2023-03-25T01:36:33;152636.00;;;6.07;86.58
10127;BME280;13080;42.608;23.362;2023-03-25T01:39:02;152621.81;;;6.01;86.42
10127;BME280;13080;42.608;23.362;2023-03-25T01:41:30;152615.28;;;5.98;85.96
10127;BME280;13080;42.608;23.362;2023-03-25T01:44:03;152599.75;;;5.92;87.15
10127;BME280;13080;42.608;23.362;2023-03-25T01:46:29;152604.97;;;5.94;86.35
10127;BME280;13080;42.608;23.362;2023-03-25T01:48:57;152604.97;;;5.94;87.10
10127;BME280;13080;42.608;23.362;2023-03-25T01:51:27;152606.25;;;5.95;87.83
10127;BME280;13080;42.608;23.362;2023-03-25T01:53:55;152599.75;;;5.92;87.86
10127;BME280;13080;42.608;23.362;2023-03-25T01:56:27;152595.84;;;5.91;87.79
10127;BME280;13080;42.608;23.362;2023-03-25T01:58:58;152588.09;;;5.88;87.95
10127;BME280;13080;42.608;23.362;2023-03-25T02:01:27;152588.09;;;5.88;87.68
10127;BME280;13080;42.608;23.362;2023-03-25T02:03:56;152590.66;;;5.89;88.44
10127;BME280;13080;42.608;23.362;2023-03-25T02:06:37;152588.09;;;5.88;87.69
10127;BME280;13080;42.608;23.362;2023-03-25T02:09:06;152584.19;;;5.86;88.40
10127;BME280;13080;42.608;23.362;2023-03-25T02:11:34;152597.13;;;5.91;88.57
10127;BME280;13080;42.608;23.362;2023-03-25T02:14:03;152582.91;;;5.86;87.44
10127;BME280;13080;42.608;23.362;2023-03-25T02:16:40;152582.91;;;5.86;87.65
10127;BME280;13080;42.608;23.362;2023-03-25T02:19:39;152572.56;;;5.81;88.25
10127;BME280;13080;42.608;23.362;2023-03-25T02:22:28;152559.63;;;5.76;88.71
10127;BME280;13080;42.608;23.362;2023-03-25T02:25:38;152545.38;;;5.71;89.11
10127;BME280;13080;42.608;23.362;2023-03-25T02:28:16;152541.47;;;5.69;88.61
10127;BME280;13080;42.608;23.362;2023-03-25T02:34:02;152529.84;;;5.65;89.41
10127;BME280;13080;42.608;23.362;2023-03-25T02:36:49;152527.28;;;5.63;89.42
10127;BME280;13080;42.608;23.362;2023-03-25T02:39:28;152509.16;;;5.56;89.55
10127;BME280;13080;42.608;23.362;2023-03-25T02:42:01;152501.38;;;5.53;88.99
10127;BME280;13080;42.608;23.362;2023-03-25T02:44:33;152487.16;;;5.48;89.88
10127;BME280;13080;42.608;23.362;2023-03-25T02:47:04;152467.75;;;5.40;90.32
10127;BME280;13080;42.608;23.362;2023-03-25T02:49:34;152467.75;;;5.40;89.82
10127;BME280;13080;42.608;23.362;2023-03-25T02:52:07;152467.75;;;5.40;89.82
10127;BME280;13080;42.608;23.362;2023-03-25T02:54:39;152461.28;;;5.37;90.17
10127;BME280;13080;42.608;23.362;2023-03-25T02:57:10;152460.00;;;5.37;89.85
10127;BME280;13080;42.608;23.362;2023-03-25T02:59:39;152462.56;;;5.38;90.45
10127;BME280;13080;42.608;23.362;2023-03-25T03:02:08;152471.63;;;5.41;90.40
10127;BME280;13080;42.608;23.362;2023-03-25T03:04:46;152474.19;;;5.42;91.10
10127;BME280;13080;42.608;23.362;2023-03-25T03:07:20;152471.63;;;5.41;91.24
10127;BME280;13080;42.608;23.362;2023-03-25T03:09:56;152504.00;;;5.54;90.91
10127;BME280;13080;42.608;23.362;2023-03-25T03:12:46;152492.34;;;5.50;90.18
10127;BME280;13080;42.608;23.362;2023-03-25T03:15:24;152489.72;;;5.49;91.29
10127;BME280;13080;42.608;23.362;2023-03-25T03:18:04;152478.09;;;5.44;91.72
10127;BME280;13080;42.608;23.362;2023-03-25T03:20:38;152470.34;;;5.41;91.26
10127;BME280;13080;42.608;23.362;2023-03-25T03:23:10;152466.47;;;5.39;91.57
10127;BME280;13080;42.608;23.362;2023-03-25T03:25:47;152465.19;;;5.39;91.35
10127;BME280;13080;42.608;23.362;2023-03-25T03:28:22;152465.19;;;5.39;91.34
10127;BME280;13080;42.608;23.362;2023-03-25T03:30:54;152465.19;;;5.39;91.25
10127;BME280;13080;42.608;23.362;2023-03-25T03:33:26;152457.44;;;5.36;91.07
10127;BME280;13080;42.608;23.362;2023-03-25T03:35:57;152457.44;;;5.36;91.28
10127;BME280;13080;42.608;23.362;2023-03-25T03:38:28;152454.81;;;5.35;91.58
10127;BME280;13080;42.608;23.362;2023-03-25T03:41:01;152457.44;;;5.36;92.29
10127;BME280;13080;42.608;23.362;2023-03-25T03:43:33;152432.81;;;5.26;92.39
10127;BME280;13080;42.608;23.362;2023-03-25T03:46:05;152418.63;;;5.20;92.02
10127;BME280;13080;42.608;23.362;2023-03-25T03:48:36;152401.81;;;5.14;92.63
10127;BME280;13080;42.608;23.362;2023-03-25T03:51:08;152396.63;;;5.12;91.98
10127;BME280;13080;42.608;23.362;2023-03-25T03:53:38;152388.84;;;5.09;91.87
10127;BME280;13080;42.608;23.362;2023-03-25T03:56:11;152400.47;;;5.13;92.95
10127;BME280;13080;42.608;23.362;2023-03-25T03:58:40;152391.44;;;5.10;92.69
10127;BME280;13080;42.608;23.362;2023-03-25T04:01:11;152374.63;;;5.03;93.36
10127;BME280;13080;42.608;23.362;2023-03-25T04:03:42;152361.72;;;4.98;93.61
10127;BME280;13080;42.608;23.362;2023-03-25T04:06:17;152352.66;;;4.94;93.91
10127;BME280;13080;42.608;23.362;2023-03-25T04:08:51;152355.22;;;4.95;93.84
10127;BME280;13080;42.608;23.362;2023-03-25T04:11:26;152366.91;;;5.00;93.98
10127;BME280;13080;42.608;23.362;2023-03-25T04:13:56;152370.75;;;5.02;93.14
10127;BME280;13080;42.608;23.362;2023-03-25T04:16:25;152361.72;;;4.98;93.53
10127;BME280;13080;42.608;23.362;2023-03-25T04:18:52;152359.09;;;4.97;93.71
10127;BME280;13080;42.608;23.362;2023-03-25T04:21:19;152352.66;;;4.94;94.24
10127;BME280;13080;42.608;23.362;2023-03-25T04:23:46;152357.81;;;4.96;94.71
10127;BME280;13080;42.608;23.362;2023-03-25T04:26:14;152356.53;;;4.96;94.78
10127;BME280;13080;42.608;23.362;2023-03-25T04:28:42;152344.91;;;4.91;94.73
10127;BME280;13080;42.608;23.362;2023-03-25T04:31:12;152321.66;;;4.82;95.05
10127;BME280;13080;42.608;23.362;2023-03-25T04:33:41;152344.91;;;4.91;94.81
10127;BME280;13080;42.608;23.362;2023-03-25T04:36:11;152347.47;;;4.92;95.25
10127;BME280;13080;42.608;23.362;2023-03-25T04:38:38;152350.09;;;4.93;94.51
10127;BME280;13080;42.608;23.362;2023-03-25T04:41:06;152359.09;;;4.97;93.70
10127;BME280;13080;42.608;23.362;2023-03-25T04:43:33;152363.00;;;4.98;94.76
10127;BME280;13080;42.608;23.362;2023-03-25T04:46:01;152386.28;;;5.08;94.69
10127;BME280;13080;42.608;23.362;2023-03-25T04:48:29;152410.84;;;5.17;94.53
10127;BME280;13080;42.608;23.362;2023-03-25T04:50:57;152421.19;;;5.21;94.41
10127;BME280;13080;42.608;23.362;2023-03-25T04:53:24;152441.91;;;5.30;93.99
10127;BME280;13080;42.608;23.362;2023-03-25T04:55:51;152458.72;;;5.36;93.73
10127;BME280;13080;42.608;23.362;2023-03-25T04:58:18;152475.53;;;5.43;93.11
10127;BME280;13080;42.608;23.362;2023-03-25T05:00:47;152497.53;;;5.52;92.47
10127;BME280;13080;42.608;23.362;2023-03-25T05:03:16;152522.09;;;5.61;92.01
10127;BME280;13080;42.608;23.362;2023-03-25T05:05:48;152535.03;;;5.67;91.89
10127;BME280;13080;42.608;23.362;2023-03-25T05:08:15;152559.63;;;5.76;91.54
10127;BME280;13080;42.608;23.362;2023-03-25T05:10:42;152579.03;;;5.84;91.21
10127;BME280;13080;42.608;23.362;2023-03-25T05:13:09;152603.59;;;5.94;90.71
10127;BME280;13080;42.608;23.362;2023-03-25T05:15:36;152634.72;;;6.06;90.41
10127;BME280;13080;42.608;23.362;2023-03-25T05:18:05;152664.47;;;6.18;89.44
10127;BME280;13080;42.608;23.362;2023-03-25T05:20:35;152698.13;;;6.31;88.47
10127;BME280;13080;42.608;23.362;2023-03-25T05:23:04;152725.34;;;6.42;88.13
10127;BME280;13080;42.608;23.362;2023-03-25T05:25:36;152765.47;;;6.58;86.79
10127;BME280;13080;42.608;23.362;2023-03-25T05:28:03;152801.69;;;6.72;85.81
10127;BME280;13080;42.608;23.362;2023-03-25T05:30:34;152831.53;;;6.84;85.50
10127;BME280;13080;42.608;23.362;2023-03-25T05:33:03;152858.69;;;6.95;84.98
10127;BME280;13080;42.608;23.362;2023-03-25T05:35:30;152892.34;;;7.08;84.01
10127;BME280;13080;42.608;23.362;2023-03-25T05:37:58;152922.19;;;7.20;83.77
10127;BME280;13080;42.608;23.362;2023-03-25T05:40:26;152954.53;;;7.33;83.29
10127;BME280;13080;42.608;23.362;2023-03-25T05:42:53;153001.22;;;7.51;82.30
10127;BME280;13080;42.608;23.362;2023-03-25T05:45:20;153016.72;;;7.57;82.25
10127;BME280;13080;42.608;23.362;2023-03-25T05:47:47;153028.41;;;7.62;82.54
10127;BME280;13080;42.608;23.362;2023-03-25T05:50:14;153032.28;;;7.63;82.47
10127;BME280;13080;42.608;23.362;2023-03-25T05:52:41;153055.63;;;7.73;82.23
10127;BME280;13080;42.608;23.362;2023-03-25T05:55:13;153075.09;;;7.80;81.62
10127;BME280;13080;42.608;23.362;2023-03-25T05:57:41;153099.69;;;7.90;81.32
10127;BME280;13080;42.608;23.362;2023-03-25T06:00:09;153124.31;;;8.00;81.32
10127;BME280;13080;42.608;23.362;2023-03-25T06:02:37;153148.97;;;8.09;81.34
10127;BME280;13080;42.608;23.362;2023-03-25T06:05:08;153181.34;;;8.22;81.21
10127;BME280;13080;42.608;23.362;2023-03-25T06:07:38;153212.47;;;8.35;80.93
10127;BME280;13080;42.608;23.362;2023-03-25T06:10:07;153251.44;;;8.50;81.14
10127;BME280;13080;42.608;23.362;2023-03-25T06:12:36;153289.00;;;8.65;79.83
10127;BME280;13080;42.608;23.362;2023-03-25T06:15:05;153316.25;;;8.76;78.87
10127;BME280;13080;42.608;23.362;2023-03-25T06:17:32;153348.69;;;8.88;78.23
10127;BME280;13080;42.608;23.362;2023-03-25T06:20:03;153382.44;;;9.02;76.93
10127;BME280;13080;42.608;23.362;2023-03-25T06:22:37;153407.06;;;9.11;75.97
10127;BME280;13080;42.608;23.362;2023-03-25T06:25:04;153455.03;;;9.30;73.36
10127;BME280;13080;42.608;23.362;2023-03-25T06:27:31;153487.50;;;9.43;72.89
10127;BME280;13080;42.608;23.362;2023-03-25T06:30:00;153545.88;;;9.66;71.90
10127;BME280;13080;42.608;23.362;2023-03-25T06:32:27;153570.56;;;9.76;70.62
10127;BME280;13080;42.608;23.362;2023-03-25T06:34:55;153588.72;;;9.83;70.61
10127;BME280;13080;42.608;23.362;2023-03-25T06:37:21;153606.91;;;9.90;69.49
10127;BME280;13080;42.608;23.362;2023-03-25T06:39:50;153670.50;;;10.15;68.87
10127;BME280;13080;42.608;23.362;2023-03-25T06:42:21;153662.72;;;10.12;68.76
10127;BME280;13080;42.608;23.362;2023-03-25T06:44:48;153682.19;;;10.20;70.02
10127;BME280;13080;42.608;23.362;2023-03-25T06:47:17;153700.41;;;10.27;69.02
10127;BME280;13080;42.608;23.362;2023-03-25T06:49:44;153757.59;;;10.50;69.70
10127;BME280;13080;42.608;23.362;2023-03-25T06:52:11;153773.13;;;10.56;70.41
10127;BME280;13080;42.608;23.362;2023-03-25T06:54:38;153754.97;;;10.49;70.01
10127;BME280;13080;42.608;23.362;2023-03-25T06:57:05;153762.78;;;10.52;69.11
10127;BME280;13080;42.608;23.362;2023-03-25T06:59:32;153757.59;;;10.50;68.91
10127;BME280;13080;42.608;23.362;2023-03-25T07:01:59;153770.56;;;10.55;68.27
10127;BME280;13080;42.608;23.362;2023-03-25T07:04:27;153784.88;;;10.60;67.70
10127;BME280;13080;42.608;23.362;2023-03-25T07:06:54;153817.31;;;10.73;67.47
10127;BME280;13080;42.608;23.362;2023-03-25T07:09:20;153814.72;;;10.72;67.45
10127;BME280;13080;42.608;23.362;2023-03-25T07:11:47;153847.16;;;10.85;66.88
10127;BME280;13080;42.608;23.362;2023-03-25T07:14:14;153877.09;;;10.97;65.93
10127;BME280;13080;42.608;23.362;2023-03-25T07:16:41;153870.59;;;10.94;66.76
10127;BME280;13080;42.608;23.362;2023-03-25T07:19:07;153884.88;;;11.00;66.04
10127;BME280;13080;42.608;23.362;2023-03-25T07:21:35;153890.06;;;11.02;66.15
10127;BME280;13080;42.608;23.362;2023-03-25T07:24:02;153923.84;;;11.15;66.05
10127;BME280;13080;42.608;23.362;2023-03-25T07:26:29;153938.13;;;11.21;65.88
10127;BME280;13080;42.608;23.362;2023-03-25T07:28:56;153969.31;;;11.33;64.91
10127;BME280;13080;42.608;23.362;2023-03-25T07:31:23;153990.13;;;11.41;65.13
10127;BME280;13080;42.608;23.362;2023-03-25T07:33:50;154013.53;;;11.51;64.69
10127;BME280;13080;42.608;23.362;2023-03-25T07:36:17;154039.50;;;11.61;63.65
10127;BME280;13080;42.608;23.362;2023-03-25T07:38:47;154047.31;;;11.64;65.01
10127;BME280;13080;42.608;23.362;2023-03-25T07:41:14;154077.22;;;11.76;64.63
10127;BME280;13080;42.608;23.362;2023-03-25T07:43:41;154176.06;;;12.15;63.22
10127;BME280;13080;42.608;23.362;2023-03-25T07:46:10;154202.06;;;12.25;61.89
10127;BME280;13080;42.608;23.362;2023-03-25T07:48:37;154191.66;;;12.21;63.31
10127;BME280;13080;42.608;23.362;2023-03-25T07:51:04;154198.16;;;12.23;61.26
10127;BME280;13080;42.608;23.362;2023-03-25T07:53:31;154247.59;;;12.43;61.80
10127;BME280;13080;42.608;23.362;2023-03-25T07:55:59;154252.81;;;12.45;62.91
10127;BME280;13080;42.608;23.362;2023-03-25T07:58:25;154256.66;;;12.46;61.75
10127;BME280;13080;42.608;23.362;2023-03-25T08:00:55;154289.19;;;12.59;62.70
10127;BME280;13080;42.608;23.362;2023-03-25T08:03:22;154321.72;;;12.72;63.26
10127;BME280;13080;42.608;23.362;2023-03-25T08:05:49;154360.78;;;12.87;60.86
10127;BME280;13080;42.608;23.362;2023-03-25T08:08:16;154376.41;;;12.94;61.99
10127;BME280;13080;42.608;23.362;2023-03-25T08:10:43;154372.47;;;12.92;61.50
10127;BME280;13080;42.608;23.362;2023-03-25T08:13:13;154356.84;;;12.86;60.65
10127;BME280;13080;42.608;23.362;2023-03-25T08:15:40;154398.47;;;13.02;60.36
10127;BME280;13080;42.608;23.362;2023-03-25T08:18:07;154403.69;;;13.04;60.95
10127;BME280;13080;42.608;23.362;2023-03-25T08:20:33;154450.56;;;13.23;59.73
10127;BME280;13080;42.608;23.362;2023-03-25T08:23:00;154498.75;;;13.42;59.17
10127;BME280;13080;42.608;23.362;2023-03-25T08:25:27;154558.59;;;13.65;59.32
10127;BME280;13080;42.608;23.362;2023-03-25T08:27:54;154591.16;;;13.78;58.18
10127;BME280;13080;42.608;23.362;2023-03-25T08:30:23;154602.88;;;13.83;58.33
10127;BME280;13080;42.608;23.362;2023-03-25T08:32:50;154631.50;;;13.94;58.92
10127;BME280;13080;42.608;23.362;2023-03-25T08:35:18;154671.88;;;14.10;58.95
10127;BME280;13080;42.608;23.362;2023-03-25T08:37:46;154679.72;;;14.13;57.56
10127;BME280;13080;42.608;23.362;2023-03-25T08:40:13;154717.44;;;14.28;59.11
10127;BME280;13080;42.608;23.362;2023-03-25T08:42:41;154753.94;;;14.42;55.83
10127;BME280;13080;42.608;23.362;2023-03-25T08:45:09;154800.88;;;14.61;55.87
10127;BME280;13080;42.608;23.362;2023-03-25T08:47:38;154826.94;;;14.71;55.41
10127;BME280;13080;42.608;23.362;2023-03-25T08:50:07;154847.75;;;14.79;55.37
10127;BME280;13080;42.608;23.362;2023-03-25T08:52:34;154882.94;;;14.93;56.41
10127;BME280;13080;42.608;23.362;2023-03-25T08:55:01;154898.56;;;14.99;53.66
10127;BME280;13080;42.608;23.362;2023-03-25T08:57:28;154937.66;;;15.14;54.27
10127;BME280;13080;42.608;23.362;2023-03-25T08:59:54;154950.69;;;15.20;53.89
10127;BME280;13080;42.608;23.362;2023-03-25T09:02:21;154942.88;;;15.16;54.26
10127;BME280;13080;42.608;23.362;2023-03-25T09:04:49;154944.19;;;15.17;52.98
10127;BME280;13080;42.608;23.362;2023-03-25T09:07:16;154967.63;;;15.26;54.17
10127;BME280;13080;42.608;23.362;2023-03-25T09:09:44;154936.38;;;15.14;53.21
10127;BME280;13080;42.608;23.362;2023-03-25T09:12:11;154984.56;;;15.33;54.89
10127;BME280;13080;42.608;23.362;2023-03-25T09:14:38;154966.34;;;15.26;53.80
10127;BME280;13080;42.608;23.362;2023-03-25T09:17:05;154993.72;;;15.36;53.22
10127;BME280;13080;42.608;23.362;2023-03-25T09:19:34;155011.97;;;15.44;53.03
10127;BME280;13080;42.608;23.362;2023-03-25T09:22:03;155013.25;;;15.44;52.79
10127;BME280;13080;42.608;23.362;2023-03-25T09:24:30;155045.84;;;15.57;52.63
10127;BME280;13080;42.608;23.362;2023-03-25T09:26:58;155058.88;;;15.62;52.06
10127;BME280;13080;42.608;23.362;2023-03-25T09:29:26;155094.09;;;15.76;52.13
10127;BME280;13080;42.608;23.362;2023-03-25T09:31:54;155041.91;;;15.55;52.46
10127;BME280;13080;42.608;23.362;2023-03-25T09:34:22;155024.97;;;15.49;52.49
10127;BME280;13080;42.608;23.362;2023-03-25T09:36:49;155015.88;;;15.45;52.69
10127;BME280;13080;42.608;23.362;2023-03-25T09:39:17;155021.09;;;15.47;53.02
10127;BME280;13080;42.608;23.362;2023-03-25T09:42:03;155035.41;;;15.53;52.08
10127;BME280;13080;42.608;23.362;2023-03-25T09:44:39;155060.16;;;15.63;51.93
10127;BME280;13080;42.608;23.362;2023-03-25T09:47:11;155062.78;;;15.64;50.62
10127;BME280;13080;42.608;23.362;2023-03-25T09:49:42;155082.38;;;15.71;50.03
10127;BME280;13080;42.608;23.362;2023-03-25T09:52:14;155108.47;;;15.82;50.92
10127;BME280;13080;42.608;23.362;2023-03-25T09:54:45;155186.72;;;16.12;50.02
10127;BME280;13080;42.608;23.362;2023-03-25T09:57:22;155224.50;;;16.27;51.09
10127;BME280;13080;42.608;23.362;2023-03-25T09:59:55;155266.28;;;16.44;50.24
10127;BME280;13080;42.608;23.362;2023-03-25T10:02:30;155267.56;;;16.44;49.59
10127;BME280;13080;42.608;23.362;2023-03-25T10:05:31;155326.25;;;16.67;48.28
10127;BME280;13080;42.608;23.362;2023-03-25T10:08:09;155332.75;;;16.70;49.39
10127;BME280;13080;42.608;23.362;2023-03-25T10:10:44;155369.38;;;16.84;49.88
10127;BME280;13080;42.608;23.362;2023-03-25T10:13:17;155347.13;;;16.75;47.84
10127;BME280;13080;42.608;23.362;2023-03-25T10:15:53;155373.25;;;16.86;48.17
10127;BME280;13080;42.608;23.362;2023-03-25T10:18:36;155340.63;;;16.73;48.28
10127;BME280;13080;42.608;23.362;2023-03-25T10:21:11;155344.50;;;16.74;48.54
10127;BME280;13080;42.608;23.362;2023-03-25T10:23:42;155318.44;;;16.64;48.41
10127;BME280;13080;42.608;23.362;2023-03-25T10:26:16;155344.50;;;16.74;49.01
10127;BME280;13080;42.608;23.362;2023-03-25T10:28:49;155348.44;;;16.76;48.29
10127;BME280;13080;42.608;23.362;2023-03-25T10:31:19;155364.16;;;16.82;49.79
10127;BME280;13080;42.608;23.362;2023-03-25T10:33:52;155371.97;;;16.85;47.66
10127;BME280;13080;42.608;23.362;2023-03-25T10:36:26;155426.78;;;17.07;47.26
10127;BME280;13080;42.608;23.362;2023-03-25T10:38:53;155415.03;;;17.02;47.45
10127;BME280;13080;42.608;23.362;2023-03-25T10:41:24;155441.13;;;17.12;47.78
10127;BME280;13080;42.608;23.362;2023-03-25T10:43:52;155447.63;;;17.15;46.52
10127;BME280;13080;42.608;23.362;2023-03-25T10:46:26;155438.53;;;17.11;46.07
10127;BME280;13080;42.608;23.362;2023-03-25T10:48:55;155495.94;;;17.34;46.35
10127;BME280;13080;42.608;23.362;2023-03-25T10:51:27;155532.47;;;17.48;44.65
10127;BME280;13080;42.608;23.362;2023-03-25T10:53:54;155510.28;;;17.39;45.47
10127;BME280;13080;42.608;23.362;2023-03-25T10:56:24;155561.19;;;17.59;43.81
10127;BME280;13080;42.608;23.362;2023-03-25T10:58:53;155610.81;;;17.79;44.90
10127;BME280;13080;42.608;23.362;2023-03-25T11:01:27;155626.53;;;17.85;43.68
10127;BME280;13080;42.608;23.362;2023-03-25T11:03:59;155644.81;;;17.92;44.02
10127;BME280;13080;42.608;23.362;2023-03-25T11:06:29;155674.81;;;18.04;42.63
10127;BME280;13080;42.608;23.362;2023-03-25T11:09:12;155733.56;;;18.27;42.43
10127;BME280;13080;42.608;23.362;2023-03-25T11:11:41;155674.81;;;18.04;42.87
10127;BME280;13080;42.608;23.362;2023-03-25T11:14:09;155754.47;;;18.35;42.16
10127;BME280;13080;42.608;23.362;2023-03-25T11:16:41;155747.97;;;18.33;40.85
10127;BME280;13080;42.608;23.362;2023-03-25T11:19:17;155777.97;;;18.44;41.77
10127;BME280;13080;42.608;23.362;2023-03-25T11:21:47;155745.31;;;18.32;42.41
10127;BME280;13080;42.608;23.362;2023-03-25T11:24:17;155727.03;;;18.24;41.46
10127;BME280;13080;42.608;23.362;2023-03-25T11:26:47;155667.00;;;18.01;40.98
10127;BME280;13080;42.608;23.362;2023-03-25T11:29:18;155665.72;;;18.00;41.23
10127;BME280;13080;42.608;23.362;2023-03-25T11:31:56;155661.78;;;17.99;41.72
10127;BME280;13080;42.608;23.362;2023-03-25T11:34:23;155648.75;;;17.94;42.29
10127;BME280;13080;42.608;23.362;2023-03-25T11:36:52;155680.03;;;18.06;42.80
10127;BME280;13080;42.608;23.362;2023-03-25T11:39:25;155714.00;;;18.19;42.35
10127;BME280;13080;42.608;23.362;2023-03-25T11:41:56;155689.22;;;18.10;43.44
10127;BME280;13080;42.608;23.362;2023-03-25T11:44:26;155656.56;;;17.97;44.09
10127;BME280;13080;42.608;23.362;2023-03-25T11:46:55;155725.75;;;18.24;43.64
10127;BME280;13080;42.608;23.362;2023-03-25T11:49:23;155751.88;;;18.34;42.96
10127;BME280;13080;42.608;23.362;2023-03-25T11:51:57;155801.50;;;18.54;42.88
10127;BME280;13080;42.608;23.362;2023-03-25T11:54:26;155826.34;;;18.63;42.44
10127;BME280;13080;42.608;23.362;2023-03-25T11:56:53;155793.66;;;18.51;43.05
10127;BME280;13080;42.608;23.362;2023-03-25T11:59:24;155826.34;;;18.63;41.36
10127;BME280;13080;42.608;23.362;2023-03-25T12:01:58;155826.34;;;18.63;42.22
10127;BME280;13080;42.608;23.362;2023-03-25T12:04:26;155848.50;;;18.72;40.99
10127;BME280;13080;42.608;23.362;2023-03-25T12:06:56;155857.66;;;18.76;42.50
10127;BME280;13080;42.608;23.362;2023-03-25T12:09:23;155925.66;;;19.02;40.97
10127;BME280;13080;42.608;23.362;2023-03-25T12:12:06;155923.06;;;19.01;39.95
10127;BME280;13080;42.608;23.362;2023-03-25T12:14:46;155963.56;;;19.17;40.88
10127;BME280;13080;42.608;23.362;2023-03-25T12:17:24;156034.13;;;19.45;39.64
10127;BME280;13080;42.608;23.362;2023-03-25T12:20:02;156048.47;;;19.50;40.06
10127;BME280;13080;42.608;23.362;2023-03-25T12:22:47;156065.47;;;19.57;39.30
10127;BME280;13080;42.608;23.362;2023-03-25T12:25:25;156060.28;;;19.55;39.19
10127;BME280;13080;42.608;23.362;2023-03-25T12:28:04;156015.84;;;19.38;38.46
10127;BME280;13080;42.608;23.362;2023-03-25T12:30:47;155987.09;;;19.26;37.92
10127;BME280;13080;42.608;23.362;2023-03-25T12:33:26;155967.47;;;19.19;39.43
10127;BME280;13080;42.608;23.362;2023-03-25T12:36:09;155954.41;;;19.14;40.50
10127;BME280;13080;42.608;23.362;2023-03-25T12:38:48;155953.13;;;19.13;38.67
10127;BME280;13080;42.608;23.362;2023-03-25T12:41:19;155974.00;;;19.21;38.17
10127;BME280;13080;42.608;23.362;2023-03-25T12:44:01;155857.66;;;18.76;38.62
10127;BME280;13080;42.608;23.362;2023-03-25T12:46:49;155886.47;;;18.87;38.94
10127;BME280;13080;42.608;23.362;2023-03-25T12:49:31;155826.34;;;18.63;38.40
10127;BME280;13080;42.608;23.362;2023-03-25T12:52:07;155818.47;;;18.60;40.13
10127;BME280;13080;42.608;23.362;2023-03-25T12:54:49;155732.28;;;18.26;40.29
10127;BME280;13080;42.608;23.362;2023-03-25T12:57:31;155736.22;;;18.28;40.48
10127;BME280;13080;42.608;23.362;2023-03-25T13:00:15;155774.06;;;18.43;40.59
10127;BME280;13080;42.608;23.362;2023-03-25T13:03:13;155757.13;;;18.36;39.66
10127;BME280;13080;42.608;23.362;2023-03-25T13:05:50;155712.72;;;18.19;39.34